createdAt,value
2022-08-24T00:01:18.091Z,21.33
2022-08-24T00:03:48.678Z,21.39
2022-08-24T00:06:25.987Z,21.46
2022-08-24T00:08:56.434Z,21.39
2022-08-24T00:11:27.232Z,20.00
2022-08-24T00:13:56.439Z,19.56
2022-08-24T00:16:26.270Z,19.80
2022-08-24T00:18:56.750Z,20.29
2022-08-24T00:21:26.124Z,20.81
2022-08-24T00:23:55.579Z,21.05
2022-08-24T00:26:29.121Z,21.18
2022-08-24T00:29:04.165Z,21.20
2022-08-24T00:31:36.091Z,21.12
2022-08-24T00:34:04.387Z,21.06
2022-08-24T00:36:33.073Z,20.76
2022-08-24T00:39:01.177Z,20.49
2022-08-24T00:41:30.378Z,20.43
2022-08-24T00:44:06.021Z,20.61
2022-08-24T00:46:44.131Z,20.48
2022-08-24T00:49:30.517Z,20.30
2022-08-24T00:52:06.204Z,20.15
2022-08-24T00:54:45.935Z,20.48
2022-08-24T00:57:19.386Z,20.70
2022-08-24T01:00:00.407Z,20.76
2022-08-24T01:02:34.392Z,20.83
2022-08-24T01:05:06.916Z,20.57
2022-08-24T01:07:36.008Z,20.04
2022-08-24T01:10:08.059Z,19.32
2022-08-24T01:12:39.633Z,19.13
2022-08-24T01:15:12.208Z,19.21
2022-08-24T01:17:59.086Z,18.92
2022-08-24T01:20:28.724Z,19.36
2022-08-24T01:23:06.968Z,19.31
2022-08-24T01:25:39.343Z,19.62
2022-08-24T01:28:14.735Z,19.27
2022-08-24T01:30:45.938Z,19.61
2022-08-24T01:33:26.326Z,19.86
2022-08-24T01:36:01.530Z,19.85
2022-08-24T01:38:33.125Z,19.84
2022-08-24T01:41:05.789Z,19.64
2022-08-24T01:43:37.308Z,19.18
2022-08-24T01:46:09.558Z,18.48
2022-08-24T01:48:38.580Z,18.32
2022-08-24T01:51:08.089Z,18.33
2022-08-24T01:53:38.128Z,18.82
2022-08-24T01:56:09.263Z,18.57
2022-08-24T01:58:46.004Z,18.95
2022-08-24T02:01:17.603Z,18.34
2022-08-24T02:03:47.235Z,18.05
2022-08-24T02:06:21.768Z,18.17
2022-08-24T02:08:50.927Z,17.96
2022-08-24T02:11:24.610Z,18.10
2022-08-24T02:13:54.541Z,17.83
2022-08-24T02:16:27.767Z,17.91
2022-08-24T02:18:57.583Z,17.43
2022-08-24T02:21:27.174Z,17.43
2022-08-24T02:23:56.438Z,17.07
2022-08-24T02:26:31.432Z,17.58
2022-08-24T02:29:03.512Z,17.57
2022-08-24T02:31:34.763Z,17.20
2022-08-24T02:34:03.041Z,16.97
2022-08-24T02:36:31.849Z,17.49
2022-08-24T02:39:00.654Z,17.67
2022-08-24T02:41:31.096Z,17.67
2022-08-24T02:44:00.107Z,17.62
2022-08-24T02:46:32.246Z,17.44
2022-08-24T02:49:11.729Z,17.54
2022-08-24T02:51:47.696Z,17.17
2022-08-24T02:54:20.482Z,17.35
2022-08-24T02:56:54.261Z,17.75
2022-08-24T02:59:25.117Z,17.59
2022-08-24T03:01:55.292Z,17.81
2022-08-24T03:04:26.983Z,17.98
2022-08-24T03:06:57.321Z,18.07
2022-08-24T03:09:28.809Z,18.45
2022-08-24T03:12:01.600Z,18.58
2022-08-24T03:14:30.641Z,18.50
2022-08-24T03:17:02.089Z,18.67
2022-08-24T03:19:31.794Z,18.73
2022-08-24T03:22:01.269Z,18.80
2022-08-24T03:24:34.051Z,18.59
2022-08-24T03:27:05.698Z,18.44
2022-08-24T03:29:35.322Z,17.74
2022-08-24T03:32:06.794Z,17.52
2022-08-24T03:34:36.086Z,17.16
2022-08-24T03:37:05.584Z,17.42
2022-08-24T03:39:34.974Z,17.80
2022-08-24T03:42:05.185Z,17.35
2022-08-24T03:44:34.368Z,17.19
2022-08-24T03:47:03.165Z,17.12
2022-08-24T03:49:33.158Z,17.59
2022-08-24T03:52:02.068Z,17.87
2022-08-24T03:54:32.187Z,17.66
2022-08-24T03:57:02.586Z,17.10
2022-08-24T03:59:33.369Z,16.42
2022-08-24T04:02:10.491Z,16.25
2022-08-24T04:04:44.331Z,16.35
2022-08-24T04:07:13.746Z,16.39
2022-08-24T04:09:43.081Z,16.18
2022-08-24T04:12:15.482Z,16.46
2022-08-24T04:14:45.467Z,16.33
2022-08-24T04:17:18.011Z,16.18
2022-08-24T04:19:58.871Z,16.62
2022-08-24T04:22:38.718Z,16.47
2022-08-24T04:25:09.938Z,16.31
2022-08-24T04:27:41.062Z,16.48
2022-08-24T04:30:14.598Z,16.91
2022-08-24T04:33:03.738Z,17.29
2022-08-24T04:35:33.688Z,17.10
2022-08-24T04:38:05.813Z,17.38
2022-08-24T04:40:34.576Z,17.34
2022-08-24T04:43:06.826Z,16.89
2022-08-24T04:45:40.339Z,17.21
2022-08-24T04:48:10.174Z,17.50
2022-08-24T04:50:39.922Z,17.76
2022-08-24T04:53:09.247Z,18.00
2022-08-24T04:55:45.464Z,18.26
2022-08-24T04:58:15.981Z,18.48
2022-08-24T05:00:47.880Z,18.59
2022-08-24T05:03:17.577Z,18.71
2022-08-24T05:05:51.830Z,18.71
2022-08-24T05:08:22.264Z,18.64
2022-08-24T05:10:52.205Z,18.55
2022-08-24T05:13:22.954Z,18.78
2022-08-24T05:15:53.663Z,19.00
2022-08-24T05:18:22.031Z,19.19
2022-08-24T05:20:50.578Z,19.33
2022-08-24T05:23:20.805Z,19.39
2022-08-24T05:25:50.477Z,19.36
2022-08-24T05:28:19.719Z,19.54
2022-08-24T05:30:48.399Z,19.67
2022-08-24T05:33:21.616Z,19.81
2022-08-24T05:35:50.435Z,19.91
2022-08-24T05:38:19.605Z,20.01
2022-08-24T05:40:49.165Z,19.60
2022-08-24T05:43:18.385Z,19.69
2022-08-24T05:45:47.411Z,20.00
2022-08-24T05:48:16.512Z,19.71
2022-08-24T05:51:09.666Z,20.05
2022-08-24T05:53:46.920Z,20.22
2022-08-24T05:56:18.761Z,20.36
2022-08-24T05:58:47.955Z,20.57
2022-08-24T06:01:19.110Z,20.59
2022-08-24T06:03:47.543Z,20.60
2022-08-24T06:06:19.201Z,20.80
2022-08-24T06:08:51.332Z,20.82
2022-08-24T06:11:29.801Z,20.92
2022-08-24T06:14:02.647Z,21.00
2022-08-24T06:16:38.168Z,20.73
2022-08-24T06:19:08.632Z,20.91
2022-08-24T06:21:39.379Z,20.18
2022-08-24T06:24:11.532Z,20.39
2022-08-24T06:26:56.920Z,20.81
2022-08-24T06:29:26.234Z,21.11
2022-08-24T06:32:05.514Z,21.07
2022-08-24T06:34:35.261Z,21.14
2022-08-24T06:37:07.033Z,21.39
2022-08-24T06:39:36.810Z,21.43
2022-08-24T06:42:06.347Z,21.54
2022-08-24T06:44:34.650Z,21.13
2022-08-24T06:47:12.557Z,21.67
2022-08-24T06:49:42.574Z,21.64
2022-08-24T06:52:15.069Z,21.38
2022-08-24T06:54:44.329Z,21.69
2022-08-24T06:57:13.590Z,22.27
2022-08-24T06:59:43.227Z,22.44
2022-08-24T07:02:16.357Z,22.23
2022-08-24T07:04:47.368Z,21.62
2022-08-24T07:07:47.319Z,22.60
2022-08-24T07:10:17.515Z,22.78
2022-08-24T07:12:53.407Z,22.98
2022-08-24T07:15:23.659Z,22.75
2022-08-24T07:18:05.067Z,23.16
2022-08-24T07:20:35.589Z,23.22
2022-08-24T07:23:15.139Z,22.84
2022-08-24T07:25:49.555Z,23.16
2022-08-24T07:28:31.788Z,23.21
2022-08-24T07:31:02.995Z,24.00
2022-08-24T07:33:37.579Z,24.53
2022-08-24T07:36:07.895Z,24.87
2022-08-24T07:38:39.350Z,25.16
2022-08-24T07:41:36.650Z,25.05
2022-08-24T07:43:57.146Z,25.20
2022-08-24T07:46:26.873Z,25.52
2022-08-24T07:49:10.960Z,25.87
2022-08-24T07:51:44.760Z,25.65
2022-08-24T07:54:17.446Z,26.15
2022-08-24T07:56:46.976Z,26.30
2022-08-24T07:59:16.415Z,26.33
2022-08-24T08:01:45.805Z,27.02
2022-08-24T08:04:16.840Z,26.70
2022-08-24T08:06:46.651Z,27.35
2022-08-24T08:09:17.479Z,27.79
2022-08-24T08:11:46.716Z,27.03
2022-08-24T08:14:17.771Z,27.76
2022-08-24T08:16:46.726Z,28.43
2022-08-24T08:19:14.931Z,28.97
2022-08-24T08:22:03.924Z,29.10
2022-08-24T08:24:39.489Z,29.07
2022-08-24T08:27:09.274Z,28.97
2022-08-24T08:29:41.629Z,29.43
2022-08-24T08:32:17.078Z,29.87
2022-08-24T08:34:50.166Z,30.34
2022-08-24T08:37:20.344Z,30.21
2022-08-24T08:39:55.384Z,30.72
2022-08-24T08:42:39.974Z,30.08
2022-08-24T08:45:23.584Z,30.99
2022-08-24T08:48:34.656Z,30.74
2022-08-24T08:51:42.072Z,31.62
2022-08-24T08:54:30.584Z,31.04
2022-08-24T08:57:18.999Z,28.76
2022-08-24T09:00:00.698Z,29.66
2022-08-24T09:02:51.753Z,30.80
2022-08-24T09:05:52.486Z,29.37
2022-08-24T09:08:35.645Z,30.06
2022-08-24T09:11:13.130Z,31.54
2022-08-24T09:13:59.635Z,31.27
2022-08-24T09:17:00.935Z,32.15
2022-08-24T09:19:52.829Z,32.54
2022-08-24T09:22:23.884Z,31.48
2022-08-24T09:25:12.134Z,31.13
2022-08-24T09:28:14.632Z,29.61
2022-08-24T09:31:04.991Z,30.44
2022-08-24T09:33:43.667Z,30.62
2022-08-24T09:36:20.298Z,31.50
2022-08-24T09:39:01.544Z,31.49
2022-08-24T09:42:11.548Z,31.96
2022-08-24T09:45:01.871Z,29.68
2022-08-24T09:48:00.567Z,29.49
2022-08-24T09:51:05.699Z,29.28
2022-08-24T09:54:00.511Z,29.84
2022-08-24T09:57:14.197Z,31.41
2022-08-24T10:00:06.076Z,30.02
2022-08-24T10:03:04.402Z,30.42
2022-08-24T10:05:49.431Z,30.46
2022-08-24T10:08:30.601Z,31.09
2022-08-24T10:11:12.107Z,32.69
2022-08-24T10:13:52.086Z,32.66
2022-08-24T10:16:35.200Z,29.70
2022-08-24T10:19:20.703Z,31.44
2022-08-24T10:22:00.224Z,32.78
2022-08-24T10:24:54.959Z,32.89
2022-08-24T10:27:41.713Z,32.15
2022-08-24T10:30:40.559Z,32.08
2022-08-24T10:33:21.805Z,32.02
2022-08-24T10:36:09.041Z,31.52
2022-08-24T10:39:07.335Z,30.79
2022-08-24T10:42:33.110Z,30.47
2022-08-24T10:45:17.316Z,30.34
2022-08-24T10:48:06.025Z,30.84
2022-08-24T10:53:25.616Z,31.39
2022-08-24T10:56:09.634Z,30.41
2022-08-24T10:58:49.161Z,30.97
2022-08-24T11:01:23.001Z,30.38
2022-08-24T11:03:55.056Z,30.70
2022-08-24T11:06:26.025Z,30.59
2022-08-24T11:08:59.241Z,30.89
2022-08-24T11:11:31.678Z,31.36
2022-08-24T11:14:04.212Z,30.46
2022-08-24T11:16:38.614Z,30.30
2022-08-24T11:19:10.964Z,30.31
2022-08-24T11:21:45.201Z,30.72
2022-08-24T11:24:27.558Z,31.50
2022-08-24T11:26:59.803Z,31.86
2022-08-24T11:29:31.781Z,33.14
2022-08-24T11:32:01.490Z,32.02
2022-08-24T11:34:38.348Z,31.59
2022-08-24T11:37:12.078Z,32.82
2022-08-24T11:39:41.347Z,33.25
2022-08-24T11:42:19.097Z,33.36
2022-08-24T11:45:01.707Z,33.29
2022-08-24T11:47:47.164Z,31.83
2022-08-24T11:50:27.236Z,31.74
2022-08-24T11:53:12.108Z,31.63
2022-08-24T11:55:57.134Z,32.16
2022-08-24T11:58:39.622Z,32.51
2022-08-24T12:01:15.246Z,31.75
2022-08-24T12:03:53.155Z,32.63
2022-08-24T12:06:36.066Z,32.09
2022-08-24T12:09:15.247Z,33.00
2022-08-24T12:11:53.257Z,33.37
2022-08-24T12:14:29.151Z,33.71
2022-08-24T12:17:03.628Z,32.67
2022-08-24T12:19:35.782Z,33.37
2022-08-24T12:22:07.868Z,33.41
2022-08-24T12:24:43.570Z,33.51
2022-08-24T12:27:20.893Z,32.88
2022-08-24T12:29:55.936Z,33.08
2022-08-24T12:32:27.470Z,32.37
2022-08-24T12:35:02.468Z,32.95
2022-08-24T12:37:35.612Z,33.01
2022-08-24T12:40:13.438Z,32.56
2022-08-24T12:42:52.170Z,31.97
2022-08-24T12:45:23.354Z,32.50
2022-08-24T12:47:57.833Z,32.20
2022-08-24T12:50:32.753Z,32.84
2022-08-24T12:53:34.654Z,33.63
2022-08-24T12:56:33.699Z,32.39
2022-08-24T12:59:14.990Z,33.46
2022-08-24T13:01:46.229Z,32.49
2022-08-24T13:04:21.169Z,33.50
2022-08-24T13:06:56.407Z,33.00
2022-08-24T13:09:34.077Z,32.60
2022-08-24T13:12:41.872Z,31.83
2022-08-24T13:15:44.677Z,33.45
2022-08-24T13:18:52.663Z,33.28
2022-08-24T13:21:45.366Z,33.95
2022-08-24T13:24:52.738Z,33.57
2022-08-24T13:28:08.941Z,33.99
2022-08-24T13:31:04.551Z,33.46
2022-08-24T13:33:39.543Z,33.12
2022-08-24T13:36:48.090Z,34.32
2022-08-24T13:39:37.038Z,33.13
2022-08-24T13:42:15.785Z,32.77
2022-08-24T13:45:20.090Z,33.44
2022-08-24T13:48:05.559Z,31.60
2022-08-24T13:50:44.081Z,31.76
2022-08-24T13:53:44.568Z,31.26
2022-08-24T13:56:33.656Z,31.55
2022-08-24T13:59:10.994Z,31.56
2022-08-24T14:02:04.819Z,31.59
2022-08-24T14:04:45.348Z,31.27
2022-08-24T14:07:20.335Z,30.79
2022-08-24T14:10:08.962Z,30.61
2022-08-24T14:12:49.993Z,31.50
2022-08-24T14:15:30.732Z,31.00
2022-08-24T14:18:11.982Z,31.75
2022-08-24T14:21:03.903Z,31.60
2022-08-24T14:23:56.211Z,32.26
2022-08-24T14:27:02.078Z,31.10
2022-08-24T14:29:36.560Z,31.52
2022-08-24T14:32:33.294Z,31.34
2022-08-24T14:35:20.378Z,32.31
2022-08-24T14:38:06.290Z,31.63
2022-08-24T14:40:56.450Z,30.99
2022-08-24T14:43:34.264Z,31.50
2022-08-24T14:46:16.396Z,31.95
2022-08-24T14:48:55.010Z,31.33
2022-08-24T14:51:49.263Z,30.61
2022-08-24T14:54:33.381Z,30.89
2022-08-24T14:57:16.446Z,31.25
2022-08-24T14:59:58.467Z,30.68
2022-08-24T15:03:08.222Z,30.99
2022-08-24T15:05:58.985Z,31.05
2022-08-24T15:08:42.892Z,31.07
2022-08-24T15:11:15.602Z,30.95
2022-08-24T15:13:48.796Z,31.32
2022-08-24T15:16:23.531Z,30.59
2022-08-24T15:19:04.624Z,31.38
2022-08-24T15:21:43.997Z,31.78
2022-08-24T15:27:02.645Z,31.04
2022-08-24T15:29:33.005Z,31.45
2022-08-24T15:32:05.569Z,31.28
2022-08-24T15:34:45.621Z,31.73
2022-08-24T15:37:16.464Z,31.77
2022-08-24T15:39:45.852Z,31.93
2022-08-24T15:42:18.586Z,31.92
2022-08-24T15:44:50.582Z,31.69
2022-08-24T15:47:26.899Z,31.90
2022-08-24T15:49:59.221Z,31.63
2022-08-24T15:52:52.188Z,31.65
2022-08-24T15:55:37.075Z,31.84
2022-08-24T15:58:30.893Z,31.92
2022-08-24T16:01:38.460Z,32.30
2022-08-24T16:04:09.849Z,31.58
2022-08-24T16:06:45.452Z,31.72
2022-08-24T16:09:35.788Z,31.49
2022-08-24T16:12:07.132Z,31.51
2022-08-24T16:14:40.016Z,31.51
2022-08-24T16:17:28.150Z,31.58
2022-08-24T16:20:00.619Z,31.44
2022-08-24T16:22:33.808Z,30.94
2022-08-24T16:25:25.683Z,30.58
2022-08-24T16:28:03.468Z,31.35
2022-08-24T16:30:47.237Z,30.90
2022-08-24T16:33:41.984Z,31.04
2022-08-24T16:36:14.471Z,30.66
2022-08-24T16:38:49.302Z,30.33
2022-08-24T16:41:21.352Z,30.87
2022-08-24T16:43:50.042Z,30.81
2022-08-24T16:46:22.706Z,30.50
2022-08-24T16:48:54.305Z,30.55
2022-08-24T16:51:24.890Z,31.04
2022-08-24T16:53:54.116Z,31.13
2022-08-24T16:56:23.792Z,30.53
2022-08-24T16:58:53.084Z,30.42
2022-08-24T17:01:23.626Z,30.45
2022-08-24T17:03:53.510Z,30.40
2022-08-24T17:06:22.887Z,30.13
2022-08-24T17:08:51.171Z,30.11
2022-08-24T17:11:20.873Z,30.23
2022-08-24T17:13:50.511Z,30.50
2022-08-24T17:16:21.669Z,30.35
2022-08-24T17:18:51.171Z,29.97
2022-08-24T17:21:19.200Z,30.14
2022-08-24T17:23:48.511Z,29.75
2022-08-24T17:26:19.371Z,29.67
2022-08-24T17:28:52.014Z,29.75
2022-08-24T17:31:20.286Z,29.80
2022-08-24T17:33:51.684Z,30.01
2022-08-24T17:36:23.776Z,29.80
2022-08-24T17:38:57.054Z,29.57
2022-08-24T17:41:27.678Z,29.38
2022-08-24T17:43:57.086Z,29.63
2022-08-24T17:46:26.196Z,29.21
2022-08-24T17:48:54.105Z,29.20
2022-08-24T17:51:23.887Z,29.35
2022-08-24T17:53:55.810Z,29.28
2022-08-24T17:56:25.127Z,29.20
2022-08-24T17:59:11.823Z,29.28
2022-08-24T18:01:40.627Z,29.19
2022-08-24T18:04:09.379Z,29.05
2022-08-24T18:06:39.727Z,29.13
2022-08-24T18:09:11.842Z,28.94
2022-08-24T18:11:41.322Z,29.17
2022-08-24T18:14:09.944Z,28.69
2022-08-24T18:16:39.372Z,28.50
2022-08-24T18:19:11.999Z,28.75
2022-08-24T18:21:43.150Z,28.63
2022-08-24T18:24:11.086Z,28.77
2022-08-24T18:26:40.148Z,28.50
2022-08-24T18:29:21.502Z,28.41
2022-08-24T18:31:51.390Z,28.48
2022-08-24T18:34:22.775Z,28.51
2022-08-24T18:36:52.606Z,28.43
2022-08-24T18:39:21.223Z,28.40
2022-08-24T18:41:51.573Z,28.45
2022-08-24T18:44:29.663Z,28.52
2022-08-24T18:47:01.495Z,28.26
2022-08-24T18:49:30.769Z,28.59
2022-08-24T18:52:02.252Z,28.43
2022-08-24T18:54:36.957Z,28.33
2022-08-24T18:57:07.124Z,28.51
2022-08-24T18:59:36.451Z,28.55
2022-08-24T19:02:31.922Z,28.57
2022-08-24T19:05:04.093Z,28.11
2022-08-24T19:07:36.680Z,27.76
2022-08-24T19:10:07.068Z,27.81
2022-08-24T19:12:46.637Z,27.38
2022-08-24T19:15:29.408Z,27.20
2022-08-24T19:18:06.861Z,27.08
2022-08-24T19:20:35.380Z,27.03
2022-08-24T19:23:11.529Z,27.10
2022-08-24T19:25:42.100Z,27.09
2022-08-24T19:28:10.064Z,26.47
2022-08-24T19:30:40.465Z,26.62
2022-08-24T19:33:13.835Z,27.10
2022-08-24T19:35:43.573Z,27.38
2022-08-24T19:38:13.792Z,27.39
2022-08-24T19:40:47.441Z,27.35
2022-08-24T19:43:17.384Z,26.52
2022-08-24T19:46:08.112Z,25.74
2022-08-24T19:48:39.742Z,26.24
2022-08-24T19:51:14.034Z,26.49
2022-08-24T19:53:44.831Z,26.37
2022-08-24T19:56:14.266Z,26.26
2022-08-24T19:58:48.563Z,25.57
2022-08-24T20:01:21.510Z,25.18
2022-08-24T20:03:50.682Z,25.08
2022-08-24T20:06:22.853Z,25.61
2022-08-24T20:08:54.776Z,25.94
2022-08-24T20:11:25.403Z,26.23
2022-08-24T20:13:56.318Z,26.23
2022-08-24T20:16:38.348Z,26.27
2022-08-24T20:19:07.821Z,26.29
2022-08-24T20:21:38.106Z,26.24
2022-08-24T20:24:09.127Z,26.28
2022-08-24T20:26:42.191Z,26.36
2022-08-24T20:29:12.341Z,26.29
2022-08-24T20:31:41.992Z,26.26
2022-08-24T20:34:11.620Z,26.14
2022-08-24T20:36:46.370Z,26.09
2022-08-24T20:39:19.612Z,26.03
2022-08-24T20:41:47.947Z,26.14
2022-08-24T20:44:16.747Z,26.14
2022-08-24T20:46:46.903Z,25.88
2022-08-24T20:49:17.127Z,25.71
2022-08-24T20:51:49.504Z,25.74
2022-08-24T20:54:19.990Z,25.81
2022-08-24T20:56:50.604Z,25.13
2022-08-24T20:59:20.050Z,24.68
2022-08-24T21:01:49.963Z,25.18
2022-08-24T21:04:18.898Z,25.24
2022-08-24T21:06:47.898Z,25.22
2022-08-24T21:09:21.089Z,25.24
2022-08-24T21:11:50.559Z,25.10
2022-08-24T21:14:20.757Z,24.84
2022-08-24T21:16:50.031Z,24.74
2022-08-24T21:19:19.200Z,24.80
2022-08-24T21:21:48.847Z,24.52
2022-08-24T21:24:18.341Z,24.42
2022-08-24T21:26:49.406Z,24.36
2022-08-24T21:29:18.289Z,24.19
2022-08-24T21:32:07.428Z,24.04
2022-08-24T21:34:41.303Z,23.81
2022-08-24T21:37:11.934Z,23.97
2022-08-24T21:39:41.724Z,23.98
2022-08-24T21:42:12.243Z,23.80
2022-08-24T21:44:41.490Z,23.80
2022-08-24T21:47:11.121Z,23.98
2022-08-24T21:49:41.158Z,24.07
2022-08-24T21:52:10.500Z,24.02
2022-08-24T21:54:39.518Z,24.37
2022-08-24T21:57:08.820Z,23.92
2022-08-24T21:59:41.567Z,24.27
2022-08-24T22:02:10.758Z,24.48
2022-08-24T22:04:42.421Z,23.77
2022-08-24T22:07:13.098Z,23.87
2022-08-24T22:09:42.363Z,23.89
2022-08-24T22:12:10.447Z,23.90
2022-08-24T22:14:41.249Z,23.78
2022-08-24T22:17:10.413Z,24.13
2022-08-24T22:19:39.765Z,23.81
2022-08-24T22:22:08.644Z,24.07
2022-08-24T22:24:38.673Z,23.98
2022-08-24T22:27:08.401Z,23.74
2022-08-24T22:29:36.507Z,22.84
2022-08-24T22:32:07.417Z,23.08
2022-08-24T22:34:37.777Z,23.42
2022-08-24T22:37:07.535Z,23.79
2022-08-24T22:39:36.936Z,23.74
2022-08-24T22:42:06.197Z,23.89
2022-08-24T22:44:35.813Z,23.84
2022-08-24T22:51:14.324Z,23.26
2022-08-24T22:58:07.767Z,22.81
2022-08-24T23:00:37.135Z,22.91
2022-08-24T23:03:06.207Z,22.95
2022-08-24T23:05:35.414Z,22.69
2022-08-24T23:08:06.651Z,22.52
2022-08-24T23:10:36.123Z,22.68
2022-08-24T23:13:05.129Z,22.90
2022-08-24T23:15:34.197Z,23.15
2022-08-24T23:18:23.440Z,23.17
2022-08-24T23:20:51.183Z,23.06
2022-08-24T23:23:21.426Z,22.98
2022-08-24T23:25:50.481Z,22.96
2022-08-24T23:28:19.629Z,22.64
2022-08-24T23:30:48.743Z,22.66
2022-08-24T23:33:17.487Z,22.28
2022-08-24T23:35:46.397Z,22.14
2022-08-24T23:38:15.576Z,21.79
2022-08-24T23:40:46.615Z,21.59
2022-08-24T23:43:16.600Z,21.54
2022-08-24T23:45:45.780Z,21.96
2022-08-24T23:48:15.541Z,21.70
2022-08-24T23:50:46.920Z,21.90
2022-08-24T23:53:16.489Z,21.80
2022-08-24T23:55:47.969Z,21.21
2022-08-24T23:58:17.104Z,21.11
